sensor_id;sensor_type;location;lat;lon;timestamp;P1;durP1;ratioP1;P2;durP2;ratioP2
16199;SDS011;8207;52.494;4.654;2023-05-25T00:01:01;10.70;;;6.13;;
16199;SDS011;8207;52.494;4.654;2023-05-25T00:03:28;16.63;;;6.90;;
16199;SDS011;8207;52.494;4.654;2023-05-25T00:05:55;11.83;;;6.40;;
16199;SDS011;8207;52.494;4.654;2023-05-25T00:08:25;12.10;;;6.33;;
16199;SDS011;8207;52.494;4.654;2023-05-25T00:10:52;9.50;;;5.47;;
16199;SDS011;8207;52.494;4.654;2023-05-25T00:13:20;8.33;;;4.93;;
16199;SDS011;8207;52.494;4.654;2023-05-25T00:15:47;10.27;;;5.43;;
16199;SDS011;8207;52.494;4.654;2023-05-25T00:18:14;7.53;;;5.07;;
16199;SDS011;8207;52.494;4.654;2023-05-25T00:20:41;9.43;;;5.77;;
16199;SDS011;8207;52.494;4.654;2023-05-25T00:23:08;8.03;;;4.57;;
16199;SDS011;8207;52.494;4.654;2023-05-25T00:25:35;8.53;;;4.43;;
16199;SDS011;8207;52.494;4.654;2023-05-25T00:28:02;6.87;;;4.77;;
16199;SDS011;8207;52.494;4.654;2023-05-25T00:30:31;10.87;;;5.13;;
16199;SDS011;8207;52.494;4.654;2023-05-25T00:32:58;9.27;;;4.80;;
16199;SDS011;8207;52.494;4.654;2023-05-25T00:35:25;6.17;;;4.47;;
16199;SDS011;8207;52.494;4.654;2023-05-25T00:37:52;8.27;;;4.07;;
16199;SDS011;8207;52.494;4.654;2023-05-25T00:40:19;6.83;;;4.63;;
16199;SDS011;8207;52.494;4.654;2023-05-25T00:42:46;7.27;;;4.50;;
16199;SDS011;8207;52.494;4.654;2023-05-25T00:45:13;7.27;;;4.27;;
16199;SDS011;8207;52.494;4.654;2023-05-25T00:47:42;6.73;;;4.10;;
16199;SDS011;8207;52.494;4.654;2023-05-25T00:50:10;11.30;;;5.60;;
16199;SDS011;8207;52.494;4.654;2023-05-25T00:52:41;9.33;;;4.77;;
16199;SDS011;8207;52.494;4.654;2023-05-25T00:55:08;6.47;;;4.00;;
16199;SDS011;8207;52.494;4.654;2023-05-25T00:57:37;9.10;;;4.07;;
16199;SDS011;8207;52.494;4.654;2023-05-25T01:00:10;9.50;;;4.70;;
16199;SDS011;8207;52.494;4.654;2023-05-25T01:02:39;8.63;;;4.67;;
16199;SDS011;8207;52.494;4.654;2023-05-25T01:05:08;7.90;;;4.60;;
16199;SDS011;8207;52.494;4.654;2023-05-25T01:07:37;8.10;;;4.50;;
16199;SDS011;8207;52.494;4.654;2023-05-25T01:10:07;8.53;;;4.30;;
16199;SDS011;8207;52.494;4.654;2023-05-25T01:12:37;8.07;;;4.43;;
16199;SDS011;8207;52.494;4.654;2023-05-25T01:15:06;9.80;;;4.30;;
16199;SDS011;8207;52.494;4.654;2023-05-25T01:17:34;8.23;;;5.03;;
16199;SDS011;8207;52.494;4.654;2023-05-25T01:20:04;7.93;;;4.50;;
16199;SDS011;8207;52.494;4.654;2023-05-25T01:22:36;10.13;;;4.80;;
16199;SDS011;8207;52.494;4.654;2023-05-25T01:25:08;5.70;;;3.83;;
16199;SDS011;8207;52.494;4.654;2023-05-25T01:27:42;9.63;;;5.13;;
16199;SDS011;8207;52.494;4.654;2023-05-25T01:30:12;9.67;;;5.53;;
16199;SDS011;8207;52.494;4.654;2023-05-25T01:32:41;10.40;;;4.50;;
16199;SDS011;8207;52.494;4.654;2023-05-25T01:35:08;9.97;;;4.73;;
16199;SDS011;8207;52.494;4.654;2023-05-25T01:37:40;8.00;;;4.60;;
16199;SDS011;8207;52.494;4.654;2023-05-25T01:40:11;8.53;;;5.17;;
16199;SDS011;8207;52.494;4.654;2023-05-25T01:42:39;8.23;;;4.67;;
16199;SDS011;8207;52.494;4.654;2023-05-25T01:45:06;9.77;;;5.03;;
16199;SDS011;8207;52.494;4.654;2023-05-25T01:47:37;9.50;;;4.40;;
16199;SDS011;8207;52.494;4.654;2023-05-25T01:50:11;7.43;;;4.70;;
16199;SDS011;8207;52.494;4.654;2023-05-25T01:52:46;6.67;;;4.57;;
16199;SDS011;8207;52.494;4.654;2023-05-25T01:55:20;8.80;;;4.90;;
16199;SDS011;8207;52.494;4.654;2023-05-25T01:57:50;9.57;;;5.27;;
16199;SDS011;8207;52.494;4.654;2023-05-25T02:00:22;10.00;;;5.30;;
16199;SDS011;8207;52.494;4.654;2023-05-25T02:02:50;10.63;;;4.97;;
16199;SDS011;8207;52.494;4.654;2023-05-25T02:05:19;7.93;;;5.33;;
16199;SDS011;8207;52.494;4.654;2023-05-25T02:07:47;7.97;;;5.10;;
16199;SDS011;8207;52.494;4.654;2023-05-25T02:10:14;7.73;;;5.03;;
16199;SDS011;8207;52.494;4.654;2023-05-25T02:12:41;9.07;;;5.70;;
16199;SDS011;8207;52.494;4.654;2023-05-25T02:15:08;7.80;;;5.00;;
16199;SDS011;8207;52.494;4.654;2023-05-25T02:17:35;10.77;;;5.10;;
16199;SDS011;8207;52.494;4.654;2023-05-25T02:20:03;8.83;;;5.67;;
16199;SDS011;8207;52.494;4.654;2023-05-25T02:22:32;7.83;;;5.90;;
16199;SDS011;8207;52.494;4.654;2023-05-25T02:25:00;11.90;;;5.83;;
16199;SDS011;8207;52.494;4.654;2023-05-25T02:27:27;8.23;;;5.17;;
16199;SDS011;8207;52.494;4.654;2023-05-25T02:29:54;10.07;;;6.10;;
16199;SDS011;8207;52.494;4.654;2023-05-25T02:32:21;10.23;;;5.80;;
16199;SDS011;8207;52.494;4.654;2023-05-25T02:34:48;9.23;;;6.10;;
16199;SDS011;8207;52.494;4.654;2023-05-25T02:37:16;11.80;;;7.03;;
16199;SDS011;8207;52.494;4.654;2023-05-25T02:39:42;12.03;;;6.50;;
16199;SDS011;8207;52.494;4.654;2023-05-25T02:42:11;10.07;;;5.83;;
16199;SDS011;8207;52.494;4.654;2023-05-25T02:44:38;8.17;;;5.17;;
16199;SDS011;8207;52.494;4.654;2023-05-25T02:47:04;9.77;;;6.43;;
16199;SDS011;8207;52.494;4.654;2023-05-25T02:49:31;10.67;;;6.60;;
16199;SDS011;8207;52.494;4.654;2023-05-25T02:51:58;7.37;;;4.60;;
16199;SDS011;8207;52.494;4.654;2023-05-25T02:54:25;6.53;;;4.87;;
16199;SDS011;8207;52.494;4.654;2023-05-25T02:56:52;8.73;;;4.90;;
16199;SDS011;8207;52.494;4.654;2023-05-25T02:59:20;8.53;;;5.17;;
16199;SDS011;8207;52.494;4.654;2023-05-25T03:01:48;8.00;;;6.10;;
16199;SDS011;8207;52.494;4.654;2023-05-25T03:04:16;9.23;;;5.30;;
16199;SDS011;8207;52.494;4.654;2023-05-25T03:06:43;8.37;;;5.53;;
16199;SDS011;8207;52.494;4.654;2023-05-25T03:09:10;10.00;;;6.70;;
16199;SDS011;8207;52.494;4.654;2023-05-25T03:11:37;10.50;;;6.17;;
16199;SDS011;8207;52.494;4.654;2023-05-25T03:14:04;8.63;;;5.90;;
16199;SDS011;8207;52.494;4.654;2023-05-25T03:16:33;10.13;;;5.77;;
16199;SDS011;8207;52.494;4.654;2023-05-25T03:19:00;14.20;;;7.30;;
16199;SDS011;8207;52.494;4.654;2023-05-25T03:21:27;12.87;;;6.77;;
16199;SDS011;8207;52.494;4.654;2023-05-25T03:23:55;11.60;;;7.03;;
16199;SDS011;8207;52.494;4.654;2023-05-25T03:26:21;11.53;;;7.13;;
16199;SDS011;8207;52.494;4.654;2023-05-25T03:28:49;12.47;;;6.50;;
16199;SDS011;8207;52.494;4.654;2023-05-25T03:31:16;10.77;;;6.43;;
16199;SDS011;8207;52.494;4.654;2023-05-25T03:33:45;10.67;;;7.00;;
16199;SDS011;8207;52.494;4.654;2023-05-25T03:36:12;11.27;;;7.20;;
16199;SDS011;8207;52.494;4.654;2023-05-25T03:38:41;10.93;;;7.07;;
16199;SDS011;8207;52.494;4.654;2023-05-25T03:41:08;9.50;;;6.53;;
16199;SDS011;8207;52.494;4.654;2023-05-25T03:43:35;10.03;;;6.77;;
16199;SDS011;8207;52.494;4.654;2023-05-25T03:46:02;11.17;;;7.10;;
16199;SDS011;8207;52.494;4.654;2023-05-25T03:48:29;11.63;;;6.73;;
16199;SDS011;8207;52.494;4.654;2023-05-25T03:50:57;11.73;;;7.07;;
16199;SDS011;8207;52.494;4.654;2023-05-25T03:53:24;12.10;;;7.40;;
16199;SDS011;8207;52.494;4.654;2023-05-25T03:55:51;9.47;;;6.33;;
16199;SDS011;8207;52.494;4.654;2023-05-25T03:58:17;13.87;;;7.33;;
16199;SDS011;8207;52.494;4.654;2023-05-25T04:00:44;11.23;;;5.97;;
16199;SDS011;8207;52.494;4.654;2023-05-25T04:03:13;10.27;;;6.30;;
16199;SDS011;8207;52.494;4.654;2023-05-25T04:05:39;14.10;;;7.13;;
16199;SDS011;8207;52.494;4.654;2023-05-25T04:08:08;11.67;;;6.97;;
16199;SDS011;8207;52.494;4.654;2023-05-25T04:10:35;15.87;;;7.07;;
16199;SDS011;8207;52.494;4.654;2023-05-25T04:13:02;15.93;;;8.07;;
16199;SDS011;8207;52.494;4.654;2023-05-25T04:15:29;12.03;;;6.80;;
16199;SDS011;8207;52.494;4.654;2023-05-25T04:17:58;9.13;;;6.20;;
16199;SDS011;8207;52.494;4.654;2023-05-25T04:20:26;12.73;;;7.33;;
16199;SDS011;8207;52.494;4.654;2023-05-25T04:22:53;12.07;;;7.27;;
16199;SDS011;8207;52.494;4.654;2023-05-25T04:25:22;20.20;;;9.20;;
16199;SDS011;8207;52.494;4.654;2023-05-25T04:27:49;13.50;;;7.03;;
16199;SDS011;8207;52.494;4.654;2023-05-25T04:30:17;16.33;;;8.13;;
16199;SDS011;8207;52.494;4.654;2023-05-25T04:32:44;9.47;;;6.07;;
16199;SDS011;8207;52.494;4.654;2023-05-25T04:35:11;13.70;;;8.43;;
16199;SDS011;8207;52.494;4.654;2023-05-25T04:37:39;9.93;;;6.63;;
16199;SDS011;8207;52.494;4.654;2023-05-25T04:40:06;11.80;;;7.03;;
16199;SDS011;8207;52.494;4.654;2023-05-25T04:42:37;12.20;;;6.40;;
16199;SDS011;8207;52.494;4.654;2023-05-25T04:45:05;10.73;;;6.43;;
16199;SDS011;8207;52.494;4.654;2023-05-25T04:47:34;8.77;;;5.50;;
16199;SDS011;8207;52.494;4.654;2023-05-25T04:50:01;8.77;;;5.73;;
16199;SDS011;8207;52.494;4.654;2023-05-25T04:52:28;11.17;;;6.07;;
16199;SDS011;8207;52.494;4.654;2023-05-25T04:54:56;10.50;;;6.63;;
16199;SDS011;8207;52.494;4.654;2023-05-25T04:57:23;9.73;;;6.77;;
16199;SDS011;8207;52.494;4.654;2023-05-25T04:59:53;13.07;;;6.77;;
16199;SDS011;8207;52.494;4.654;2023-05-25T05:02:20;10.17;;;6.60;;
16199;SDS011;8207;52.494;4.654;2023-05-25T05:04:47;10.17;;;6.17;;
16199;SDS011;8207;52.494;4.654;2023-05-25T05:07:16;13.00;;;8.33;;
16199;SDS011;8207;52.494;4.654;2023-05-25T05:09:43;10.37;;;7.33;;
16199;SDS011;8207;52.494;4.654;2023-05-25T05:12:10;13.53;;;7.43;;
16199;SDS011;8207;52.494;4.654;2023-05-25T05:14:37;13.60;;;7.80;;
16199;SDS011;8207;52.494;4.654;2023-05-25T05:17:05;14.97;;;8.30;;
16199;SDS011;8207;52.494;4.654;2023-05-25T05:19:32;15.20;;;8.27;;
16199;SDS011;8207;52.494;4.654;2023-05-25T05:21:59;17.33;;;8.17;;
16199;SDS011;8207;52.494;4.654;2023-05-25T05:24:26;10.37;;;6.87;;
16199;SDS011;8207;52.494;4.654;2023-05-25T05:26:53;10.50;;;6.87;;
16199;SDS011;8207;52.494;4.654;2023-05-25T05:29:19;10.57;;;6.27;;
16199;SDS011;8207;52.494;4.654;2023-05-25T05:31:46;9.57;;;6.07;;
16199;SDS011;8207;52.494;4.654;2023-05-25T05:34:15;10.13;;;6.13;;
16199;SDS011;8207;52.494;4.654;2023-05-25T05:36:41;10.23;;;5.67;;
16199;SDS011;8207;52.494;4.654;2023-05-25T05:39:09;9.37;;;6.30;;
16199;SDS011;8207;52.494;4.654;2023-05-25T05:41:36;10.70;;;5.95;;
16199;SDS011;8207;52.494;4.654;2023-05-25T05:44:03;12.98;;;5.55;;
16199;SDS011;8207;52.494;4.654;2023-05-25T05:46:29;7.55;;;4.65;;
16199;SDS011;8207;52.494;4.654;2023-05-25T05:48:56;13.77;;;5.68;;
16199;SDS011;8207;52.494;4.654;2023-05-25T05:51:24;14.57;;;5.38;;
16199;SDS011;8207;52.494;4.654;2023-05-25T05:53:51;8.60;;;5.22;;
16199;SDS011;8207;52.494;4.654;2023-05-25T05:56:18;9.05;;;4.65;;
16199;SDS011;8207;52.494;4.654;2023-05-25T05:58:45;9.77;;;4.47;;
16199;SDS011;8207;52.494;4.654;2023-05-25T06:01:13;8.25;;;4.00;;
16199;SDS011;8207;52.494;4.654;2023-05-25T06:03:41;8.90;;;5.00;;
16199;SDS011;8207;52.494;4.654;2023-05-25T06:06:08;10.00;;;4.03;;
16199;SDS011;8207;52.494;4.654;2023-05-25T06:08:36;7.80;;;4.47;;
16199;SDS011;8207;52.494;4.654;2023-05-25T06:11:05;9.02;;;4.55;;
16199;SDS011;8207;52.494;4.654;2023-05-25T06:13:31;11.68;;;4.95;;
16199;SDS011;8207;52.494;4.654;2023-05-25T06:15:58;12.07;;;3.95;;
16199;SDS011;8207;52.494;4.654;2023-05-25T06:18:25;13.57;;;4.85;;
16199;SDS011;8207;52.494;4.654;2023-05-25T06:20:52;8.07;;;4.57;;
16199;SDS011;8207;52.494;4.654;2023-05-25T06:23:19;9.65;;;4.53;;
16199;SDS011;8207;52.494;4.654;2023-05-25T06:25:47;7.47;;;4.10;;
16199;SDS011;8207;52.494;4.654;2023-05-25T06:28:17;10.07;;;4.75;;
16199;SDS011;8207;52.494;4.654;2023-05-25T06:30:43;12.73;;;5.20;;
16199;SDS011;8207;52.494;4.654;2023-05-25T06:33:10;9.40;;;4.72;;
16199;SDS011;8207;52.494;4.654;2023-05-25T06:35:37;8.82;;;4.30;;
16199;SDS011;8207;52.494;4.654;2023-05-25T06:38:04;7.25;;;3.80;;
16199;SDS011;8207;52.494;4.654;2023-05-25T06:40:31;6.97;;;4.15;;
16199;SDS011;8207;52.494;4.654;2023-05-25T06:43:00;11.20;;;4.68;;
16199;SDS011;8207;52.494;4.654;2023-05-25T06:45:26;8.15;;;4.15;;
16199;SDS011;8207;52.494;4.654;2023-05-25T06:47:53;9.93;;;4.35;;
16199;SDS011;8207;52.494;4.654;2023-05-25T06:50:20;8.95;;;4.28;;
16199;SDS011;8207;52.494;4.654;2023-05-25T06:52:47;11.20;;;4.60;;
16199;SDS011;8207;52.494;4.654;2023-05-25T06:55:15;8.55;;;4.53;;
16199;SDS011;8207;52.494;4.654;2023-05-25T06:57:42;10.65;;;4.47;;
16199;SDS011;8207;52.494;4.654;2023-05-25T07:00:12;7.90;;;4.53;;
16199;SDS011;8207;52.494;4.654;2023-05-25T07:02:43;8.50;;;5.00;;
16199;SDS011;8207;52.494;4.654;2023-05-25T07:05:14;12.73;;;4.70;;
16199;SDS011;8207;52.494;4.654;2023-05-25T07:07:45;7.03;;;4.88;;
16199;SDS011;8207;52.494;4.654;2023-05-25T07:10:18;7.35;;;4.45;;
16199;SDS011;8207;52.494;4.654;2023-05-25T07:12:50;8.20;;;4.55;;
16199;SDS011;8207;52.494;4.654;2023-05-25T07:15:19;8.27;;;4.22;;
16199;SDS011;8207;52.494;4.654;2023-05-25T07:17:46;8.25;;;4.90;;
16199;SDS011;8207;52.494;4.654;2023-05-25T07:20:14;9.55;;;4.63;;
16199;SDS011;8207;52.494;4.654;2023-05-25T07:22:41;6.63;;;4.13;;
16199;SDS011;8207;52.494;4.654;2023-05-25T07:25:08;10.30;;;4.20;;
16199;SDS011;8207;52.494;4.654;2023-05-25T07:27:35;8.60;;;3.42;;
16199;SDS011;8207;52.494;4.654;2023-05-25T07:30:04;6.40;;;3.30;;
16199;SDS011;8207;52.494;4.654;2023-05-25T07:32:33;6.63;;;2.92;;
16199;SDS011;8207;52.494;4.654;2023-05-25T07:35:00;5.03;;;3.45;;
16199;SDS011;8207;52.494;4.654;2023-05-25T07:37:27;4.97;;;3.40;;
16199;SDS011;8207;52.494;4.654;2023-05-25T07:39:53;6.88;;;3.88;;
16199;SDS011;8207;52.494;4.654;2023-05-25T07:42:21;5.68;;;3.70;;
16199;SDS011;8207;52.494;4.654;2023-05-25T07:44:48;9.00;;;3.35;;
16199;SDS011;8207;52.494;4.654;2023-05-25T07:47:14;6.47;;;3.97;;
16199;SDS011;8207;52.494;4.654;2023-05-25T07:49:43;4.97;;;3.05;;
16199;SDS011;8207;52.494;4.654;2023-05-25T07:52:10;7.60;;;3.80;;
16199;SDS011;8207;52.494;4.654;2023-05-25T07:54:37;6.18;;;3.75;;
16199;SDS011;8207;52.494;4.654;2023-05-25T07:57:04;7.03;;;4.00;;
16199;SDS011;8207;52.494;4.654;2023-05-25T07:59:32;6.35;;;3.92;;
16199;SDS011;8207;52.494;4.654;2023-05-25T08:01:59;8.50;;;4.20;;
16199;SDS011;8207;52.494;4.654;2023-05-25T08:04:26;8.50;;;4.53;;
16199;SDS011;8207;52.494;4.654;2023-05-25T08:06:54;8.38;;;4.40;;
16199;SDS011;8207;52.494;4.654;2023-05-25T08:09:21;8.23;;;3.88;;
16199;SDS011;8207;52.494;4.654;2023-05-25T08:11:48;4.90;;;3.80;;
16199;SDS011;8207;52.494;4.654;2023-05-25T08:14:15;7.00;;;4.10;;
16199;SDS011;8207;52.494;4.654;2023-05-25T08:16:42;8.23;;;4.38;;
16199;SDS011;8207;52.494;4.654;2023-05-25T08:19:08;9.05;;;3.90;;
16199;SDS011;8207;52.494;4.654;2023-05-25T08:21:35;10.45;;;4.68;;
16199;SDS011;8207;52.494;4.654;2023-05-25T08:24:05;4.95;;;3.60;;
16199;SDS011;8207;52.494;4.654;2023-05-25T08:26:33;6.90;;;3.75;;
16199;SDS011;8207;52.494;4.654;2023-05-25T08:29:00;9.75;;;4.25;;
16199;SDS011;8207;52.494;4.654;2023-05-25T08:31:28;9.95;;;3.90;;
16199;SDS011;8207;52.494;4.654;2023-05-25T08:33:56;9.85;;;3.97;;
16199;SDS011;8207;52.494;4.654;2023-05-25T08:36:25;6.55;;;3.65;;
16199;SDS011;8207;52.494;4.654;2023-05-25T08:38:52;9.98;;;4.10;;
16199;SDS011;8207;52.494;4.654;2023-05-25T08:41:20;10.00;;;3.53;;
16199;SDS011;8207;52.494;4.654;2023-05-25T08:43:47;11.07;;;3.72;;
16199;SDS011;8207;52.494;4.654;2023-05-25T08:46:15;8.43;;;3.28;;
16199;SDS011;8207;52.494;4.654;2023-05-25T08:48:53;9.75;;;3.60;;
16199;SDS011;8207;52.494;4.654;2023-05-25T08:51:25;8.38;;;3.80;;
16199;SDS011;8207;52.494;4.654;2023-05-25T08:53:54;7.03;;;3.65;;
16199;SDS011;8207;52.494;4.654;2023-05-25T08:56:28;8.52;;;3.72;;
16199;SDS011;8207;52.494;4.654;2023-05-25T08:59:01;8.10;;;3.97;;
16199;SDS011;8207;52.494;4.654;2023-05-25T09:01:31;9.73;;;4.22;;
16199;SDS011;8207;52.494;4.654;2023-05-25T09:04:02;8.20;;;4.00;;
16199;SDS011;8207;52.494;4.654;2023-05-25T09:06:29;8.25;;;4.25;;
16199;SDS011;8207;52.494;4.654;2023-05-25T09:09:01;8.45;;;4.10;;
16199;SDS011;8207;52.494;4.654;2023-05-25T09:11:31;12.75;;;4.22;;
16199;SDS011;8207;52.494;4.654;2023-05-25T09:13:58;10.77;;;4.25;;
16199;SDS011;8207;52.494;4.654;2023-05-25T09:16:26;13.55;;;3.95;;
16199;SDS011;8207;52.494;4.654;2023-05-25T09:18:53;8.05;;;3.85;;
16199;SDS011;8207;52.494;4.654;2023-05-25T09:21:20;8.70;;;4.00;;
16199;SDS011;8207;52.494;4.654;2023-05-25T09:23:47;11.00;;;4.10;;
16199;SDS011;8207;52.494;4.654;2023-05-25T09:26:15;8.00;;;3.70;;
16199;SDS011;8207;52.494;4.654;2023-05-25T09:28:45;9.63;;;4.45;;
16199;SDS011;8207;52.494;4.654;2023-05-25T09:31:13;9.93;;;4.35;;
16199;SDS011;8207;52.494;4.654;2023-05-25T09:33:40;11.60;;;4.38;;
16199;SDS011;8207;52.494;4.654;2023-05-25T09:36:07;10.90;;;4.50;;
16199;SDS011;8207;52.494;4.654;2023-05-25T09:38:34;10.38;;;3.65;;
16199;SDS011;8207;52.494;4.654;2023-05-25T09:41:02;63.22;;;9.75;;
16199;SDS011;8207;52.494;4.654;2023-05-25T09:43:30;10.25;;;4.38;;
16199;SDS011;8207;52.494;4.654;2023-05-25T09:45:59;15.52;;;4.03;;
16199;SDS011;8207;52.494;4.654;2023-05-25T09:48:26;10.23;;;3.30;;
16199;SDS011;8207;52.494;4.654;2023-05-25T09:50:54;4.72;;;2.80;;
16199;SDS011;8207;52.494;4.654;2023-05-25T09:53:21;10.13;;;3.30;;
16199;SDS011;8207;52.494;4.654;2023-05-25T09:55:49;8.75;;;3.45;;
16199;SDS011;8207;52.494;4.654;2023-05-25T09:58:17;10.25;;;4.05;;
16199;SDS011;8207;52.494;4.654;2023-05-25T10:00:43;9.63;;;3.30;;
16199;SDS011;8207;52.494;4.654;2023-05-25T10:03:12;9.43;;;3.60;;
16199;SDS011;8207;52.494;4.654;2023-05-25T10:05:41;10.40;;;3.50;;
16199;SDS011;8207;52.494;4.654;2023-05-25T10:08:07;7.88;;;3.42;;
16199;SDS011;8207;52.494;4.654;2023-05-25T10:10:36;9.50;;;3.28;;
16199;SDS011;8207;52.494;4.654;2023-05-25T10:13:04;7.53;;;3.30;;
16199;SDS011;8207;52.494;4.654;2023-05-25T10:15:34;11.85;;;3.47;;
16199;SDS011;8207;52.494;4.654;2023-05-25T10:18:02;9.90;;;3.63;;
16199;SDS011;8207;52.494;4.654;2023-05-25T10:20:33;8.50;;;3.40;;
16199;SDS011;8207;52.494;4.654;2023-05-25T10:23:02;9.65;;;3.92;;
16199;SDS011;8207;52.494;4.654;2023-05-25T10:25:35;7.82;;;3.97;;
16199;SDS011;8207;52.494;4.654;2023-05-25T10:28:06;9.80;;;3.55;;
16199;SDS011;8207;52.494;4.654;2023-05-25T10:30:35;12.93;;;3.95;;
16199;SDS011;8207;52.494;4.654;2023-05-25T10:33:04;9.30;;;3.15;;
16199;SDS011;8207;52.494;4.654;2023-05-25T10:35:33;8.98;;;3.15;;
16199;SDS011;8207;52.494;4.654;2023-05-25T10:38:02;9.82;;;3.20;;
16199;SDS011;8207;52.494;4.654;2023-05-25T10:40:30;10.32;;;2.97;;
16199;SDS011;8207;52.494;4.654;2023-05-25T10:42:59;11.32;;;3.45;;
16199;SDS011;8207;52.494;4.654;2023-05-25T10:45:27;9.15;;;2.83;;
16199;SDS011;8207;52.494;4.654;2023-05-25T10:47:54;9.60;;;3.38;;
16199;SDS011;8207;52.494;4.654;2023-05-25T10:50:21;13.43;;;3.63;;
16199;SDS011;8207;52.494;4.654;2023-05-25T10:52:59;12.02;;;3.42;;
16199;SDS011;8207;52.494;4.654;2023-05-25T10:55:27;9.25;;;3.20;;
16199;SDS011;8207;52.494;4.654;2023-05-25T10:58:06;10.25;;;3.40;;
16199;SDS011;8207;52.494;4.654;2023-05-25T11:00:34;8.50;;;2.38;;
16199;SDS011;8207;52.494;4.654;2023-05-25T11:03:01;7.78;;;2.92;;
16199;SDS011;8207;52.494;4.654;2023-05-25T11:05:32;13.90;;;3.70;;
16199;SDS011;8207;52.494;4.654;2023-05-25T11:08:01;8.63;;;3.17;;
16199;SDS011;8207;52.494;4.654;2023-05-25T11:10:42;11.30;;;3.42;;
16199;SDS011;8207;52.494;4.654;2023-05-25T11:16:16;9.43;;;2.70;;
16199;SDS011;8207;52.494;4.654;2023-05-25T11:18:49;7.13;;;2.45;;
16199;SDS011;8207;52.494;4.654;2023-05-25T11:21:22;5.65;;;2.20;;
16199;SDS011;8207;52.494;4.654;2023-05-25T11:24:11;5.60;;;2.35;;
16199;SDS011;8207;52.494;4.654;2023-05-25T11:26:51;7.50;;;2.20;;
16199;SDS011;8207;52.494;4.654;2023-05-25T11:29:20;12.32;;;3.45;;
16199;SDS011;8207;52.494;4.654;2023-05-25T11:31:50;6.50;;;2.28;;
16199;SDS011;8207;52.494;4.654;2023-05-25T11:34:19;7.03;;;3.20;;
16199;SDS011;8207;52.494;4.654;2023-05-25T11:36:51;8.80;;;2.88;;
16199;SDS011;8207;52.494;4.654;2023-05-25T11:39:20;10.23;;;3.17;;
16199;SDS011;8207;52.494;4.654;2023-05-25T11:41:48;8.55;;;3.20;;
16199;SDS011;8207;52.494;4.654;2023-05-25T11:44:23;9.82;;;3.28;;
16199;SDS011;8207;52.494;4.654;2023-05-25T11:46:52;10.07;;;3.28;;
16199;SDS011;8207;52.494;4.654;2023-05-25T11:49:22;12.50;;;3.08;;
16199;SDS011;8207;52.494;4.654;2023-05-25T11:51:49;14.13;;;3.72;;
16199;SDS011;8207;52.494;4.654;2023-05-25T11:54:21;11.88;;;3.65;;
16199;SDS011;8207;52.494;4.654;2023-05-25T11:56:49;9.73;;;3.15;;
16199;SDS011;8207;52.494;4.654;2023-05-25T11:59:16;11.10;;;3.45;;
16199;SDS011;8207;52.494;4.654;2023-05-25T12:01:43;10.55;;;3.50;;
16199;SDS011;8207;52.494;4.654;2023-05-25T12:04:10;11.70;;;3.45;;
16199;SDS011;8207;52.494;4.654;2023-05-25T12:06:37;11.15;;;3.67;;
16199;SDS011;8207;52.494;4.654;2023-05-25T12:09:09;14.38;;;3.50;;
16199;SDS011;8207;52.494;4.654;2023-05-25T12:11:38;13.82;;;3.70;;
16199;SDS011;8207;52.494;4.654;2023-05-25T12:14:09;12.57;;;3.97;;
16199;SDS011;8207;52.494;4.654;2023-05-25T12:16:36;16.80;;;4.28;;
16199;SDS011;8207;52.494;4.654;2023-05-25T12:19:04;19.02;;;4.22;;
16199;SDS011;8207;52.494;4.654;2023-05-25T12:21:32;11.20;;;3.10;;
16199;SDS011;8207;52.494;4.654;2023-05-25T12:24:00;12.75;;;3.75;;
16199;SDS011;8207;52.494;4.654;2023-05-25T12:26:28;12.75;;;3.72;;
16199;SDS011;8207;52.494;4.654;2023-05-25T12:28:59;15.38;;;3.65;;
16199;SDS011;8207;52.494;4.654;2023-05-25T12:31:28;16.58;;;4.63;;
16199;SDS011;8207;52.494;4.654;2023-05-25T12:34:05;12.70;;;4.03;;
16199;SDS011;8207;52.494;4.654;2023-05-25T12:36:40;15.15;;;3.75;;
16199;SDS011;8207;52.494;4.654;2023-05-25T12:39:12;14.77;;;4.35;;
16199;SDS011;8207;52.494;4.654;2023-05-25T12:41:41;14.35;;;4.75;;
16199;SDS011;8207;52.494;4.654;2023-05-25T12:46:55;18.33;;;4.53;;
16199;SDS011;8207;52.494;4.654;2023-05-25T12:49:34;14.13;;;4.15;;
16199;SDS011;8207;52.494;4.654;2023-05-25T12:52:01;12.80;;;4.03;;
16199;SDS011;8207;52.494;4.654;2023-05-25T12:54:32;16.40;;;4.50;;
16199;SDS011;8207;52.494;4.654;2023-05-25T12:57:00;12.95;;;4.50;;
16199;SDS011;8207;52.494;4.654;2023-05-25T12:59:29;12.00;;;3.50;;
16199;SDS011;8207;52.494;4.654;2023-05-25T13:01:56;12.63;;;3.83;;
16199;SDS011;8207;52.494;4.654;2023-05-25T13:04:23;14.48;;;4.32;;
16199;SDS011;8207;52.494;4.654;2023-05-25T13:06:50;14.13;;;4.72;;
16199;SDS011;8207;52.494;4.654;2023-05-25T13:09:17;24.42;;;5.03;;
16199;SDS011;8207;52.494;4.654;2023-05-25T13:11:44;14.73;;;5.20;;
16199;SDS011;8207;52.494;4.654;2023-05-25T13:14:11;13.27;;;4.70;;
16199;SDS011;8207;52.494;4.654;2023-05-25T13:16:39;15.88;;;4.32;;
16199;SDS011;8207;52.494;4.654;2023-05-25T13:19:06;16.23;;;5.00;;
16199;SDS011;8207;52.494;4.654;2023-05-25T13:21:33;13.20;;;4.22;;
16199;SDS011;8207;52.494;4.654;2023-05-25T13:24:00;17.05;;;4.78;;
16199;SDS011;8207;52.494;4.654;2023-05-25T13:26:27;15.57;;;3.85;;
16199;SDS011;8207;52.494;4.654;2023-05-25T13:28:54;15.57;;;4.60;;
16199;SDS011;8207;52.494;4.654;2023-05-25T13:31:21;15.35;;;4.68;;
16199;SDS011;8207;52.494;4.654;2023-05-25T13:33:49;17.63;;;4.82;;
16199;SDS011;8207;52.494;4.654;2023-05-25T13:36:16;18.27;;;4.57;;
16199;SDS011;8207;52.494;4.654;2023-05-25T13:38:43;16.23;;;4.55;;
16199;SDS011;8207;52.494;4.654;2023-05-25T13:41:10;13.98;;;4.78;;
16199;SDS011;8207;52.494;4.654;2023-05-25T13:43:37;18.95;;;4.75;;
16199;SDS011;8207;52.494;4.654;2023-05-25T13:46:05;19.65;;;5.22;;
16199;SDS011;8207;52.494;4.654;2023-05-25T13:48:32;21.17;;;5.25;;
16199;SDS011;8207;52.494;4.654;2023-05-25T13:51:00;12.70;;;4.40;;
16199;SDS011;8207;52.494;4.654;2023-05-25T13:53:28;15.35;;;4.75;;
16199;SDS011;8207;52.494;4.654;2023-05-25T13:55:55;13.73;;;4.10;;
16199;SDS011;8207;52.494;4.654;2023-05-25T13:58:22;15.15;;;4.45;;
16199;SDS011;8207;52.494;4.654;2023-05-25T14:00:50;16.70;;;5.05;;
16199;SDS011;8207;52.494;4.654;2023-05-25T14:03:17;17.02;;;4.45;;
16199;SDS011;8207;52.494;4.654;2023-05-25T14:05:44;14.73;;;4.88;;
16199;SDS011;8207;52.494;4.654;2023-05-25T14:08:12;14.88;;;4.53;;
16199;SDS011;8207;52.494;4.654;2023-05-25T14:10:39;14.77;;;4.72;;
16199;SDS011;8207;52.494;4.654;2023-05-25T14:13:08;14.55;;;4.97;;
16199;SDS011;8207;52.494;4.654;2023-05-25T14:15:35;12.88;;;4.72;;
16199;SDS011;8207;52.494;4.654;2023-05-25T14:18:01;15.77;;;4.93;;
16199;SDS011;8207;52.494;4.654;2023-05-25T14:20:29;14.50;;;5.10;;
16199;SDS011;8207;52.494;4.654;2023-05-25T14:22:58;12.70;;;4.20;;
16199;SDS011;8207;52.494;4.654;2023-05-25T14:25:27;15.45;;;5.07;;
16199;SDS011;8207;52.494;4.654;2023-05-25T14:27:54;21.25;;;5.05;;
16199;SDS011;8207;52.494;4.654;2023-05-25T14:30:21;21.60;;;5.28;;
16199;SDS011;8207;52.494;4.654;2023-05-25T14:32:49;13.13;;;4.50;;
16199;SDS011;8207;52.494;4.654;2023-05-25T14:35:16;16.80;;;4.55;;
16199;SDS011;8207;52.494;4.654;2023-05-25T14:37:43;17.70;;;5.20;;
16199;SDS011;8207;52.494;4.654;2023-05-25T14:40:10;19.80;;;5.57;;
16199;SDS011;8207;52.494;4.654;2023-05-25T14:42:39;14.18;;;4.78;;
16199;SDS011;8207;52.494;4.654;2023-05-25T14:45:06;18.70;;;5.07;;
16199;SDS011;8207;52.494;4.654;2023-05-25T14:47:33;14.73;;;4.60;;
16199;SDS011;8207;52.494;4.654;2023-05-25T14:50:00;13.23;;;4.32;;
16199;SDS011;8207;52.494;4.654;2023-05-25T14:52:27;20.23;;;5.03;;
16199;SDS011;8207;52.494;4.654;2023-05-25T14:54:54;20.20;;;5.35;;
16199;SDS011;8207;52.494;4.654;2023-05-25T14:57:20;16.77;;;5.10;;
16199;SDS011;8207;52.494;4.654;2023-05-25T14:59:49;20.80;;;6.03;;
16199;SDS011;8207;52.494;4.654;2023-05-25T15:02:16;17.15;;;5.25;;
16199;SDS011;8207;52.494;4.654;2023-05-25T15:04:42;17.90;;;5.05;;